Time,TemperatureF,DewpointF,PressureIn,WindDirection,WindDirectionDegrees,WindSpeedMPH,WindSpeedGustMPH,Humidity,HourlyPrecipIn,Conditions,Clouds,dailyrainin,SoftwareType,DateUTC
2013-02-11 00:02:00,21.9,17.0,29.91,North,353,0.0,0.0,81,0.00,RA,,0.00,WeatherDisplay:10.37,2013-02-11 08:02:00,
2013-02-11 00:07:00,22.1,17.2,29.91,North,353,0.0,0.0,81,0.00,RA,,0.00,WeatherDisplay:10.37,2013-02-11 08:07:00,
2013-02-11 00:12:00,22.3,17.6,29.91,North,353,0.0,0.0,82,0.00,RA,,0.00,WeatherDisplay:10.37,2013-02-11 08:12:00,
2013-02-11 00:22:00,22.3,17.6,29.91,North,353,0.0,0.0,82,0.00,,,0.00,WeatherDisplay:10.37,2013-02-11 08:22:00,
2013-02-11 00:27:00,22.5,17.8,29.91,NNW,337,0.0,0.0,82,0.00,,,0.00,WeatherDisplay:10.37,2013-02-11 08:27:00,
2013-02-11 00:32:00,22.6,18.3,29.91,NW,308,0.0,0.0,83,0.00,,,0.00,WeatherDisplay:10.37,2013-02-11 08:32:00,
2013-02-11 00:37:00,22.8,18.7,29.91,NW,310,0.0,4.0,84,0.00,,,0.00,WeatherDisplay:10.37,2013-02-11 08:37:00,
2013-02-11 00:42:00,23.0,18.9,29.91,NW,321,0.0,0.0,84,0.00,,,0.00,WeatherDisplay:10.37,2013-02-11 08:42:00,
2013-02-11 00:47:00,23.0,18.9,29.91,NW,320,0.0,0.0,84,0.00,,,0.00,WeatherDisplay:10.37,2013-02-11 08:47:00,
2013-02-11 00:52:00,22.8,18.7,29.91,NNW,338,0.0,0.0,84,0.00,,,0.00,WeatherDisplay:10.37,2013-02-11 08:52:00,
2013-02-11 01:02:00,22.5,18.7,29.91,NNE,27,3.0,11.0,85,0.00,,,0.00,WeatherDisplay:10.37,2013-02-11 09:02:00,
2013-02-11 01:07:00,22.1,18.3,29.91,North,10,0.0,4.0,85,0.00,,,0.00,WeatherDisplay:10.37,2013-02-11 09:07:00,
2013-02-11 01:12:00,22.0,18.2,29.91,NNW,330,0.0,3.0,85,0.00,,,0.00,WeatherDisplay:10.37,2013-02-11 09:12:00,
2013-02-11 01:17:00,21.9,17.8,29.91,NNW,330,0.0,0.0,84,0.00,,,0.00,WeatherDisplay:10.37,2013-02-11 09:17:00,
2013-02-11 01:22:00,21.9,17.8,29.91,WSW,244,0.0,0.0,84,0.00,,,0.00,WeatherDisplay:10.37,2013-02-11 09:22:00,
2013-02-11 01:27:00,21.9,17.2,29.91,WNW,299,0.0,6.0,82,0.00,,,0.00,WeatherDisplay:10.37,2013-02-11 09:27:00,
2013-02-11 01:32:00,21.6,16.3,29.91,North,353,0.0,4.0,80,0.00,,,0.00,WeatherDisplay:10.37,2013-02-11 09:32:00,
2013-02-11 01:37:00,21.6,16.1,29.91,North,4,2.0,4.0,79,0.00,,,0.00,WeatherDisplay:10.37,2013-02-11 09:37:00,
2013-02-11 01:42:00,21.4,15.6,29.91,North,2,2.0,6.0,78,0.00,,,0.00,WeatherDisplay:10.37,2013-02-11 09:42:00,
2013-02-11 01:47:00,21.4,15.3,29.91,North,353,0.0,3.0,77,0.00,,,0.00,WeatherDisplay:10.37,2013-02-11 09:47:00,
2013-02-11 01:52:00,21.3,15.5,29.91,North,350,2.0,4.0,78,0.00,,,0.00,WeatherDisplay:10.37,2013-02-11 09:52:00,
2013-02-11 01:57:00,21.2,15.1,29.91,NNW,346,0.0,4.0,77,0.00,,,0.00,WeatherDisplay:10.37,2013-02-11 09:57:00,
2013-02-11 02:02:00,21.2,15.1,29.91,NNW,340,0.0,0.0,77,0.00,,,0.00,WeatherDisplay:10.37,2013-02-11 10:02:00,
2013-02-11 02:07:00,21.2,15.1,29.91,North,3,0.0,6.0,77,0.00,,,0.00,WeatherDisplay:10.37,2013-02-11 10:07:00,
2013-02-11 02:22:00,21.0,14.9,29.91,NE,39,0.0,0.0,77,0.00,,,0.00,WeatherDisplay:10.37,2013-02-11 10:22:00,
2013-02-11 02:27:00,20.6,14.2,29.91,NE,39,0.0,0.0,76,0.00,,,0.00,WeatherDisplay:10.37,2013-02-11 10:27:00,
2013-02-11 02:32:00,20.5,14.4,29.91,NE,39,0.0,0.0,77,0.00,,,0.00,WeatherDisplay:10.37,2013-02-11 10:32:00,
2013-02-11 02:37:00,20.7,14.6,29.91,NE,39,0.0,0.0,77,0.00,,,0.00,WeatherDisplay:10.37,2013-02-11 10:37:00,
2013-02-11 02:42:00,20.7,14.6,29.91,NE,39,0.0,0.0,77,0.00,,,0.00,WeatherDisplay:10.37,2013-02-11 10:42:00,
2013-02-11 02:47:00,20.5,14.4,29.91,ENE,67,0.0,0.0,77,0.00,,,0.00,WeatherDisplay:10.37,2013-02-11 10:47:00,
2013-02-11 03:02:00,19.9,14.2,29.91,North,5,0.0,0.0,78,0.00,,,0.00,WeatherDisplay:10.37,2013-02-11 11:02:00,
2013-02-11 03:07:00,19.9,14.2,29.91,North,5,0.0,0.0,78,0.00,,,0.00,WeatherDisplay:10.37,2013-02-11 11:07:00,
2013-02-11 03:12:00,19.9,14.2,29.91,North,8,0.0,0.0,78,0.00,,,0.00,WeatherDisplay:10.37,2013-02-11 11:12:00,
2013-02-11 03:17:00,19.9,14.2,29.91,North,8,0.0,0.0,78,0.00,,,0.00,WeatherDisplay:10.37,2013-02-11 11:17:00,
2013-02-11 03:22:00,19.8,14.0,29.91,North,2,0.0,0.0,78,0.00,,,0.00,WeatherDisplay:10.37,2013-02-11 11:22:00,
2013-02-11 03:27:00,19.6,13.8,29.91,North,357,0.0,0.0,78,0.00,,,0.00,WeatherDisplay:10.37,2013-02-11 11:27:00,
2013-02-11 03:42:00,19.6,14.1,29.91,NE,42,0.0,3.0,79,0.00,,,0.00,WeatherDisplay:10.37,2013-02-11 11:42:00,
2013-02-11 03:47:00,19.9,14.8,29.91,NNE,24,0.0,6.0,80,0.00,,,0.00,WeatherDisplay:10.37,2013-02-11 11:47:00,
2013-02-11 03:52:00,20.1,14.6,29.91,NNE,15,0.0,0.0,79,0.00,,,0.00,WeatherDisplay:10.37,2013-02-11 11:52:00,
2013-02-11 03:57:00,20.1,14.7,29.91,NNE,15,0.0,4.0,79,0.00,,,0.00,WeatherDisplay:10.37,2013-02-11 11:57:00,
2013-02-11 04:02:00,20.3,15.1,29.91,NNE,19,2.0,10.0,80,0.00,,,0.00,WeatherDisplay:10.37,2013-02-11 12:02:00,
2013-02-11 04:07:00,20.3,14.8,29.91,NE,38,3.0,6.0,79,0.00,,,0.00,WeatherDisplay:10.37,2013-02-11 12:07:00,
2013-02-11 04:12:00,20.3,14.5,29.91,NNE,32,2.0,6.0,78,0.00,,,0.00,WeatherDisplay:10.37,2013-02-11 12:12:00,
2013-02-11 04:17:00,20.3,14.5,29.91,NNE,15,2.0,8.0,78,0.00,,,0.00,WeatherDisplay:10.37,2013-02-11 12:17:00,
2013-02-11 04:22:00,20.3,13.9,29.91,NNE,19,6.0,8.0,76,0.00,,,0.00,WeatherDisplay:10.37,2013-02-11 12:22:00,
2013-02-11 04:27:00,20.1,13.5,29.91,NNE,12,0.0,7.0,75,0.00,,,0.00,WeatherDisplay:10.37,2013-02-11 12:27:00,
2013-02-11 04:32:00,19.9,13.0,29.91,NNE,18,0.0,4.0,74,0.00,,,0.00,WeatherDisplay:10.37,2013-02-11 12:32:00,
2013-02-11 04:37:00,20.1,13.1,29.91,NNE,21,0.0,6.0,74,0.00,,,0.00,WeatherDisplay:10.37,2013-02-11 12:37:00,
2013-02-11 04:42:00,20.1,13.5,29.91,NNE,13,0.0,6.0,75,0.00,,,0.00,WeatherDisplay:10.37,2013-02-11 12:42:00,
2013-02-11 04:47:00,20.1,13.5,29.91,NNE,31,0.0,3.0,75,0.00,,,0.00,WeatherDisplay:10.37,2013-02-11 12:47:00,
2013-02-11 04:52:00,20.1,13.5,29.91,NNE,16,2.0,4.0,75,0.00,,,0.00,WeatherDisplay:10.37,2013-02-11 12:52:00,
2013-02-11 04:57:00,20.1,13.8,29.91,NNE,22,0.0,4.0,76,0.00,,,0.00,WeatherDisplay:10.37,2013-02-11 12:57:00,
2013-02-11 05:07:00,19.8,13.4,29.91,North,3,0.0,6.0,76,0.00,,,0.00,WeatherDisplay:10.37,2013-02-11 13:07:00,
2013-02-11 05:12:00,19.7,13.4,29.91,North,10,0.0,6.0,76,0.00,,,0.00,WeatherDisplay:10.37,2013-02-11 13:12:00,
2013-02-11 05:17:00,19.4,13.1,29.91,North,4,0.0,6.0,76,0.00,,,0.00,WeatherDisplay:10.37,2013-02-11 13:17:00,
2013-02-11 05:22:00,19.3,13.2,29.91,North,356,0.0,6.0,77,0.00,,,0.00,WeatherDisplay:10.37,2013-02-11 13:22:00,
2013-02-11 05:27:00,19.2,13.2,29.91,North,9,2.0,8.0,77,0.00,,,0.00,WeatherDisplay:10.37,2013-02-11 13:27:00,
2013-02-11 05:32:00,19.2,13.5,29.91,NNE,14,0.0,6.0,78,0.00,,,0.00,WeatherDisplay:10.37,2013-02-11 13:32:00,
2013-02-11 05:42:00,19.0,13.6,29.91,NNE,26,0.0,6.0,79,0.00,,,0.00,WeatherDisplay:10.37,2013-02-11 13:42:00,
2013-02-11 05:47:00,19.0,13.5,29.91,NNE,26,0.0,6.0,79,0.00,,,0.00,WeatherDisplay:10.37,2013-02-11 13:47:00,
2013-02-11 05:52:00,18.9,13.4,29.91,NNE,21,5.0,6.0,79,0.00,,,0.00,WeatherDisplay:10.37,2013-02-11 13:52:00,
2013-02-11 05:57:00,18.7,13.2,29.91,NNE,22,2.0,6.0,79,0.00,,,0.00,WeatherDisplay:10.37,2013-02-11 13:57:00,
2013-02-11 06:02:00,18.5,13.1,29.91,NNE,31,2.0,6.0,79,0.00,,,0.00,WeatherDisplay:10.37,2013-02-11 14:02:00,
2013-02-11 06:07:00,18.3,12.9,29.91,NNE,28,2.0,4.0,79,0.00,,,0.00,WeatherDisplay:10.37,2013-02-11 14:07:00,
2013-02-11 06:12:00,18.1,12.4,29.91,NNE,31,0.0,3.0,78,0.00,,,0.00,WeatherDisplay:10.37,2013-02-11 14:12:00,
2013-02-11 06:17:00,18.0,12.3,29.91,NE,45,0.0,5.0,78,0.00,,,0.00,WeatherDisplay:10.37,2013-02-11 14:17:00,
2013-02-11 06:22:00,18.1,12.4,29.91,NE,48,3.0,6.0,78,0.00,,,0.00,WeatherDisplay:10.37,2013-02-11 14:22:00,
2013-02-11 06:27:00,18.1,12.4,29.91,NE,53,3.0,6.0,78,0.00,,,0.00,WeatherDisplay:10.37,2013-02-11 14:27:00,
2013-02-11 06:32:00,18.1,12.4,29.91,ENE,59,2.0,4.0,78,0.00,,,0.00,WeatherDisplay:10.37,2013-02-11 14:32:00,
2013-02-11 06:42:00,17.8,11.8,29.91,ENE,57,3.0,8.0,77,0.00,,,0.00,WeatherDisplay:10.37,2013-02-11 14:42:00,
2013-02-11 06:47:00,17.6,11.6,29.91,ENE,58,3.0,5.0,77,0.00,,,0.00,WeatherDisplay:10.37,2013-02-11 14:47:00,
2013-02-11 06:52:00,17.6,11.3,29.91,NE,51,0.0,6.0,76,0.00,,,0.00,WeatherDisplay:10.37,2013-02-11 14:52:00,
2013-02-11 06:57:00,17.4,10.8,29.91,NE,55,2.0,6.0,75,0.00,,,0.00,WeatherDisplay:10.37,2013-02-11 14:57:00,
2013-02-11 07:02:00,17.4,10.8,29.91,NE,53,2.0,4.0,75,0.00,,,0.00,WeatherDisplay:10.37,2013-02-11 15:02:00,
2013-02-11 07:07:00,17.7,10.8,29.94,NE,37,2.0,6.0,74,0.00,,,0.00,WeatherDisplay:10.37,2013-02-11 15:07:00,
2013-02-11 07:12:00,18.1,10.6,29.94,NNE,32,2.0,6.0,72,0.00,,,0.00,WeatherDisplay:10.37,2013-02-11 15:12:00,
2013-02-11 07:17:00,18.5,10.7,29.94,NNE,30,0.0,4.0,71,0.00,,,0.00,WeatherDisplay:10.37,2013-02-11 15:17:00,
2013-02-11 07:27:00,19.3,10.5,29.94,ENE,61,3.0,5.0,68,0.00,,,0.00,WeatherDisplay:10.37,2013-02-11 15:27:00,
2013-02-11 07:32:00,19.7,10.5,29.94,NE,56,0.0,6.0,67,0.00,,,0.00,WeatherDisplay:10.37,2013-02-11 15:32:00,
2013-02-11 07:37:00,20.1,10.5,29.94,NNE,32,0.0,3.0,66,0.00,,,0.00,WeatherDisplay:10.37,2013-02-11 15:37:00,
2013-02-11 07:47:00,21.1,11.8,29.94,NE,55,0.0,4.0,67,0.00,,,0.00,WeatherDisplay:10.37,2013-02-11 15:47:00,
2013-02-11 07:52:00,21.6,11.6,29.94,ENE,63,3.0,6.0,65,0.00,,,0.00,WeatherDisplay:10.37,2013-02-11 15:52:00,
2013-02-11 08:02:00,22.3,10.5,29.94,NE,47,3.0,10.0,60,0.00,,,0.00,WeatherDisplay:10.37,2013-02-11 16:02:00,
2013-02-11 08:12:00,22.8,10.6,29.94,NNE,29,1.0,8.0,59,0.00,,,0.00,WeatherDisplay:10.37,2013-02-11 16:12:00,
2013-02-11 08:17:00,23.0,9.6,29.94,NNE,20,3.0,10.0,56,0.00,,,0.00,WeatherDisplay:10.37,2013-02-11 16:17:00,
2013-02-11 08:22:00,23.4,9.6,29.94,North,356,3.0,6.0,55,0.00,,,0.00,WeatherDisplay:10.37,2013-02-11 16:22:00,
2013-02-11 08:32:00,23.6,9.0,29.94,NNE,23,3.0,6.0,53,0.00,,,0.00,WeatherDisplay:10.37,2013-02-11 16:32:00,
2013-02-11 08:37:00,23.9,9.6,29.97,NE,34,0.0,8.0,54,0.00,,,0.00,WeatherDisplay:10.37,2013-02-11 16:37:00,
2013-02-11 08:42:00,24.1,9.8,29.97,NNE,24,3.0,9.0,54,0.00,,,0.00,WeatherDisplay:10.37,2013-02-11 16:42:00,
2013-02-11 08:47:00,24.4,9.7,29.97,NNE,13,3.0,6.0,53,0.00,,,0.00,WeatherDisplay:10.37,2013-02-11 16:47:00,
2013-02-11 08:52:00,25.1,10.8,29.97,North,351,0.0,6.0,54,0.00,,,0.00,WeatherDisplay:10.37,2013-02-11 16:52:00,
2013-02-11 08:57:00,25.3,10.6,29.97,NNE,13,3.0,9.0,53,0.00,,,0.00,WeatherDisplay:10.37,2013-02-11 16:57:00,
2013-02-11 09:02:00,25.3,10.6,29.97,NE,50,3.0,9.0,53,0.00,,,0.00,WeatherDisplay:10.37,2013-02-11 17:02:00,
2013-02-11 09:07:00,25.7,11.4,29.97,NNE,24,5.0,8.0,54,0.00,,,0.00,WeatherDisplay:10.37,2013-02-11 17:07:00,
2013-02-11 09:12:00,25.9,11.1,29.97,NNE,31,3.0,8.0,53,0.00,,,0.00,WeatherDisplay:10.37,2013-02-11 17:12:00,
2013-02-11 09:17:00,26.1,10.8,29.97,NE,48,3.0,9.0,52,0.00,,,0.00,WeatherDisplay:10.37,2013-02-11 17:17:00,
2013-02-11 09:22:00,26.1,9.9,29.97,NNE,26,6.0,8.0,50,0.00,,,0.00,WeatherDisplay:10.37,2013-02-11 17:22:00,
2013-02-11 09:27:00,26.1,9.1,29.97,NNE,26,3.0,8.0,48,0.00,,,0.00,WeatherDisplay:10.37,2013-02-11 17:27:00,
2013-02-11 09:32:00,26.3,8.3,29.97,NE,45,5.0,8.0,46,0.00,,,0.00,WeatherDisplay:10.37,2013-02-11 17:32:00,
2013-02-11 09:37:00,26.9,9.3,29.97,NE,36,3.0,10.0,47,0.00,,,0.00,WeatherDisplay:10.37,2013-02-11 17:37:00,
2013-02-11 09:42:00,27.4,8.9,29.97,North,5,5.0,10.0,45,0.00,,,0.00,WeatherDisplay:10.37,2013-02-11 17:42:00,
2013-02-11 09:47:00,27.9,8.7,29.97,North,4,3.0,9.0,44,0.00,,,0.00,WeatherDisplay:10.37,2013-02-11 17:47:00,
2013-02-11 09:52:00,28.0,8.9,29.97,NNE,32,3.0,7.0,44,0.00,,,0.00,WeatherDisplay:10.37,2013-02-11 17:52:00,
2013-02-11 09:57:00,27.7,8.1,29.97,NE,50,5.0,8.0,43,0.00,,,0.00,WeatherDisplay:10.37,2013-02-11 17:57:00,
2013-02-11 10:02:00,27.9,8.3,29.97,NE,53,3.0,8.0,43,0.00,,,0.00,WeatherDisplay:10.37,2013-02-11 18:02:00,
2013-02-11 10:07:00,27.9,7.7,29.97,NE,51,6.0,8.0,42,0.00,,,0.00,WeatherDisplay:10.37,2013-02-11 18:07:00,
2013-02-11 10:12:00,28.2,8.0,29.97,NNE,31,6.0,9.0,42,0.00,,,0.00,WeatherDisplay:10.37,2013-02-11 18:12:00,
2013-02-11 10:22:00,29.8,9.4,30.00,ENE,58,3.0,6.0,42,0.00,,,0.00,WeatherDisplay:10.37,2013-02-11 18:22:00,
2013-02-11 10:27:00,29.9,9.0,30.00,NE,44,3.0,8.0,41,0.00,,,0.00,WeatherDisplay:10.37,2013-02-11 18:27:00,
2013-02-11 10:37:00,30.2,8.7,30.00,North,9,2.0,11.0,40,0.00,,,0.00,WeatherDisplay:10.37,2013-02-11 18:37:00,
2013-02-11 10:42:00,29.8,8.4,30.00,NE,37,2.0,8.0,40,0.00,,,0.00,WeatherDisplay:10.37,2013-02-11 18:42:00,
2013-02-11 10:47:00,30.8,9.2,30.00,NE,53,2.0,8.0,40,0.00,,,0.00,WeatherDisplay:10.37,2013-02-11 18:47:00,
2013-02-11 10:52:00,29.8,7.8,30.00,NE,52,5.0,8.0,39,0.00,,,0.00,WeatherDisplay:10.37,2013-02-11 18:52:00,
2013-02-11 10:57:00,30.2,9.3,30.00,NNE,31,3.0,11.0,41,0.00,,,0.00,WeatherDisplay:10.37,2013-02-11 18:57:00,
2013-02-11 11:02:00,30.1,8.7,30.00,NNE,23,3.0,8.0,40,0.00,,,0.00,WeatherDisplay:10.37,2013-02-11 19:02:00,
2013-02-11 11:07:00,29.9,9.1,29.97,NNE,22,3.0,10.0,41,0.00,,,0.00,WeatherDisplay:10.37,2013-02-11 19:07:00,
2013-02-11 11:12:00,30.5,9.0,29.97,North,11,5.0,9.0,40,0.00,,,0.00,WeatherDisplay:10.37,2013-02-11 19:12:00,
2013-02-11 11:22:00,30.8,9.2,29.97,North,356,5.0,7.0,40,0.00,,,0.00,WeatherDisplay:10.37,2013-02-11 19:22:00,
2013-02-11 11:32:00,30.5,9.0,29.97,North,11,5.0,12.0,40,0.00,,,0.00,WeatherDisplay:10.37,2013-02-11 19:32:00,
2013-02-11 11:42:00,30.2,9.3,29.97,NE,48,5.0,8.0,41,0.00,,,0.00,WeatherDisplay:10.37,2013-02-11 19:42:00,
2013-02-11 11:52:00,28.9,7.0,29.97,NNE,22,5.0,8.0,39,0.00,,,0.00,WeatherDisplay:10.37,2013-02-11 19:52:00,
2013-02-11 11:57:00,28.8,6.9,29.97,NE,34,8.0,13.0,39,0.00,,,0.00,WeatherDisplay:10.37,2013-02-11 19:57:00,
2013-02-11 12:07:00,28.0,6.2,29.97,North,359,8.0,13.0,39,0.00,,,0.00,WeatherDisplay:10.37,2013-02-11 20:07:00,
2013-02-11 12:12:00,27.9,6.6,29.97,NE,37,3.0,8.0,40,0.00,,,0.00,WeatherDisplay:10.37,2013-02-11 20:12:00,
2013-02-11 12:17:00,27.9,6.6,29.97,NE,51,3.0,6.0,40,0.00,,,0.00,WeatherDisplay:10.37,2013-02-11 20:17:00,
2013-02-11 12:22:00,28.4,7.1,29.97,NNE,18,6.0,9.0,40,0.00,,,0.00,WeatherDisplay:10.37,2013-02-11 20:22:00,
2013-02-11 12:27:00,28.7,7.3,29.97,NNE,20,2.0,11.0,40,0.00,,,0.00,WeatherDisplay:10.37,2013-02-11 20:27:00,
2013-02-11 12:32:00,28.8,6.4,29.97,NE,34,6.0,15.0,38,0.00,,,0.00,WeatherDisplay:10.37,2013-02-11 20:32:00,
2013-02-11 12:37:00,27.9,5.5,29.97,NE,37,6.0,19.0,38,0.00,,,0.00,WeatherDisplay:10.37,2013-02-11 20:37:00,
2013-02-11 12:42:00,27.3,5.0,29.97,NE,48,6.0,8.0,38,0.00,,,0.00,WeatherDisplay:10.37,2013-02-11 20:42:00,
2013-02-11 12:47:00,27.4,5.1,29.97,NNE,33,5.0,11.0,38,0.00,,,0.00,WeatherDisplay:10.37,2013-02-11 20:47:00,
2013-02-11 12:52:00,27.9,4.9,29.97,NNE,20,5.0,10.0,37,0.00,,,0.00,WeatherDisplay:10.37,2013-02-11 20:52:00,
2013-02-11 12:57:00,27.5,4.0,29.97,NE,36,6.0,11.0,36,0.00,,,0.00,WeatherDisplay:10.37,2013-02-11 20:57:00,
2013-02-11 13:02:00,27.3,4.4,29.97,NNE,17,2.0,20.0,37,0.00,,,0.00,WeatherDisplay:10.37,2013-02-11 21:02:00,
2013-02-11 13:07:00,28.0,5.6,29.97,NNW,327,3.0,13.0,38,0.00,,,0.00,WeatherDisplay:10.37,2013-02-11 21:07:00,
2013-02-11 13:12:00,28.2,4.0,29.97,NNW,341,5.0,16.0,35,0.00,,,0.00,WeatherDisplay:10.37,2013-02-11 21:12:00,
2013-02-11 13:17:00,28.2,4.0,29.97,North,357,7.0,13.0,35,0.00,,,0.00,WeatherDisplay:10.37,2013-02-11 21:17:00,
2013-02-11 13:22:00,28.5,4.2,29.97,NNE,29,5.0,8.0,35,0.00,,,0.00,WeatherDisplay:10.37,2013-02-11 21:22:00,
2013-02-11 13:27:00,28.5,4.3,29.97,NE,39,0.0,6.0,35,0.00,,,0.00,WeatherDisplay:10.37,2013-02-11 21:27:00,
2013-02-11 13:32:00,28.9,4.0,29.97,NNE,26,5.0,13.0,34,0.00,,,0.00,WeatherDisplay:10.37,2013-02-11 21:32:00,
2013-02-11 13:37:00,28.6,3.1,29.97,NE,43,6.0,13.0,33,0.00,,,0.00,WeatherDisplay:10.37,2013-02-11 21:37:00,
2013-02-11 13:42:00,28.9,4.0,29.97,NNE,14,3.0,13.0,34,0.00,,,0.00,WeatherDisplay:10.37,2013-02-11 21:42:00,
2013-02-11 13:47:00,29.7,4.0,29.97,NNW,336,3.0,8.0,33,0.00,,,0.00,WeatherDisplay:10.37,2013-02-11 21:47:00,
2013-02-11 13:52:00,29.6,3.3,29.97,North,351,8.0,17.0,32,0.00,,,0.00,WeatherDisplay:10.37,2013-02-11 21:52:00,
2013-02-11 14:02:00,28.8,2.6,29.97,NE,35,3.0,14.0,32,0.00,,,0.00,WeatherDisplay:10.37,2013-02-11 22:02:00,
2013-02-11 14:07:00,29.1,2.9,29.97,NNE,19,6.0,8.0,32,0.00,,,0.00,WeatherDisplay:10.37,2013-02-11 22:07:00,
2013-02-11 14:12:00,29.7,3.4,29.97,NNE,27,5.0,8.0,32,0.00,,,0.00,WeatherDisplay:10.37,2013-02-11 22:12:00,
2013-02-11 14:17:00,30.0,4.3,29.97,East,93,2.0,6.0,33,0.00,,,0.00,WeatherDisplay:10.37,2013-02-11 22:17:00,
2013-02-11 14:22:00,30.3,3.9,29.97,East,97,5.0,6.0,32,0.04,RA,,0.04,WeatherDisplay:10.37,2013-02-11 22:22:00,
2013-02-11 14:27:00,29.2,2.9,29.97,East,89,6.0,8.0,32,0.00,RA,,0.04,WeatherDisplay:10.37,2013-02-11 22:27:00,
2013-02-11 14:32:00,28.8,2.6,29.97,East,101,0.0,8.0,32,0.00,,,0.04,WeatherDisplay:10.37,2013-02-11 22:32:00,
2013-02-11 14:37:00,28.9,2.7,29.97,East,90,5.0,6.0,32,0.00,,,0.04,WeatherDisplay:10.37,2013-02-11 22:37:00,
2013-02-11 14:42:00,28.4,2.2,29.97,ENE,76,2.0,8.0,32,0.00,,,0.04,WeatherDisplay:10.37,2013-02-11 22:42:00,
2013-02-11 14:47:00,28.4,2.2,29.97,ENE,71,3.0,8.0,32,0.00,,,0.04,WeatherDisplay:10.37,2013-02-11 22:47:00,
2013-02-11 14:52:00,28.4,2.2,30.00,NE,49,2.0,10.0,32,0.00,,,0.04,WeatherDisplay:10.37,2013-02-11 22:52:00,
2013-02-11 15:02:00,28.9,2.0,30.00,NNE,20,5.0,15.0,31,0.00,,,0.04,WeatherDisplay:10.37,2013-02-11 23:02:00,
2013-02-11 15:07:00,28.9,2.7,29.97,NE,36,0.0,13.0,32,0.00,,,0.04,WeatherDisplay:10.37,2013-02-11 23:07:00,
2013-02-11 15:12:00,29.2,2.2,29.97,NE,45,0.0,6.0,31,0.00,,,0.04,WeatherDisplay:10.37,2013-02-11 23:12:00,
2013-02-11 15:17:00,28.7,1.8,29.97,NE,55,5.0,9.0,31,0.00,,,0.04,WeatherDisplay:10.37,2013-02-11 23:17:00,
2013-02-11 15:22:00,28.8,1.9,29.97,NE,55,0.0,8.0,31,0.00,,,0.04,WeatherDisplay:10.37,2013-02-11 23:22:00,
2013-02-11 15:27:00,28.4,2.2,29.97,NE,38,3.0,9.0,32,0.00,,,0.04,WeatherDisplay:10.37,2013-02-11 23:27:00,
2013-02-11 15:32:00,28.4,2.2,29.97,North,0,0.0,8.0,32,0.00,,,0.04,WeatherDisplay:10.37,2013-02-11 23:32:00,
2013-02-11 15:37:00,28.6,1.7,30.00,WNW,282,5.0,7.0,31,0.00,,,0.04,WeatherDisplay:10.37,2013-02-11 23:37:00,
2013-02-11 15:42:00,28.6,1.7,30.00,WSW,240,2.0,6.0,31,0.00,,,0.04,WeatherDisplay:10.37,2013-02-11 23:42:00,
2013-02-11 15:52:00,28.6,2.4,30.00,NNW,339,3.0,8.0,32,0.00,,,0.04,WeatherDisplay:10.37,2013-02-11 23:52:00,
2013-02-11 15:57:00,28.9,2.7,30.00,NW,314,2.0,9.0,32,0.00,,,0.04,WeatherDisplay:10.37,2013-02-11 23:57:00,
2013-02-11 16:02:00,28.6,1.8,30.00,NNW,333,2.0,6.0,31,0.00,,,0.04,WeatherDisplay:10.37,2013-02-12 00:02:00,
2013-02-11 16:07:00,28.0,1.9,30.00,North,2,0.0,5.0,32,0.00,,,0.04,WeatherDisplay:10.37,2013-02-12 00:07:00,
2013-02-11 16:12:00,27.6,0.9,30.00,NE,45,0.0,6.0,31,0.00,,,0.04,WeatherDisplay:10.37,2013-02-12 00:12:00,
2013-02-11 16:22:00,26.3,0.4,30.00,ENE,73,1.0,9.0,32,0.00,,,0.04,WeatherDisplay:10.37,2013-02-12 00:22:00,
2013-02-11 16:27:00,25.9,0.0,30.00,ENE,61,3.0,8.0,32,0.00,,,0.04,WeatherDisplay:10.37,2013-02-12 00:27:00,
2013-02-11 16:32:00,25.6,-0.2,30.00,NNE,29,0.0,8.0,32,0.00,,,0.04,WeatherDisplay:10.37,2013-02-12 00:32:00,
2013-02-11 16:37:00,25.3,-0.5,30.00,NNE,23,2.0,9.0,32,0.00,,,0.04,WeatherDisplay:10.37,2013-02-12 00:37:00,
2013-02-11 16:42:00,25.2,-0.6,30.00,NE,45,0.0,6.0,32,0.00,,,0.04,WeatherDisplay:10.37,2013-02-12 00:42:00,
2013-02-11 16:47:00,25.0,-0.8,30.00,East,90,0.0,6.0,32,0.00,,,0.04,WeatherDisplay:10.37,2013-02-12 00:47:00,
2013-02-11 16:52:00,24.6,-0.4,30.00,ESE,111,0.0,4.0,33,0.00,,,0.04,WeatherDisplay:10.37,2013-02-12 00:52:00,
2013-02-11 16:57:00,24.4,-0.6,30.00,ENE,60,0.0,4.0,33,0.00,,,0.04,WeatherDisplay:10.37,2013-02-12 00:57:00,
2013-02-11 17:02:00,24.1,-0.9,30.00,NE,38,0.0,6.0,33,0.00,,,0.04,WeatherDisplay:10.37,2013-02-12 01:02:00,
2013-02-11 17:07:00,23.6,-1.4,30.00,ENE,59,0.0,6.0,33,0.00,,,0.04,WeatherDisplay:10.37,2013-02-12 01:07:00,
2013-02-11 17:12:00,23.4,-2.2,30.00,NE,45,3.0,7.0,32,0.00,,,0.04,WeatherDisplay:10.37,2013-02-12 01:12:00,
2013-02-11 17:17:00,23.2,-1.7,30.00,NNE,26,2.0,7.0,33,0.00,,,0.04,WeatherDisplay:10.37,2013-02-12 01:17:00,
2013-02-11 17:27:00,22.8,-2.0,30.03,NNE,12,0.0,0.0,33,0.00,,,0.04,WeatherDisplay:10.37,2013-02-12 01:27:00,
2013-02-11 17:32:00,22.5,-2.3,30.03,North,352,0.0,0.0,33,0.00,,,0.04,WeatherDisplay:10.37,2013-02-12 01:32:00,
2013-02-11 17:37:00,22.3,-2.5,30.03,NNE,29,0.0,4.0,33,0.00,,,0.04,WeatherDisplay:10.37,2013-02-12 01:37:00,
2013-02-11 17:42:00,22.1,-2.7,30.03,ENE,59,3.0,5.0,33,0.00,,,0.04,WeatherDisplay:10.37,2013-02-12 01:42:00,
2013-02-11 17:52:00,21.7,-3.0,30.03,ENE,66,0.0,4.0,33,0.00,,,0.04,WeatherDisplay:10.37,2013-02-12 01:52:00,
2013-02-11 18:02:00,21.2,-2.9,30.03,NE,51,0.0,3.0,34,0.00,,,0.04,WeatherDisplay:10.37,2013-02-12 02:02:00,
2013-02-11 18:07:00,21.2,-2.9,30.03,ENE,58,2.0,4.0,34,0.00,,,0.04,WeatherDisplay:10.37,2013-02-12 02:07:00,
2013-02-11 18:17:00,21.0,-3.0,30.03,NE,40,0.0,3.0,34,0.00,,,0.04,WeatherDisplay:10.37,2013-02-12 02:17:00,
2013-02-11 18:22:00,21.0,-3.0,30.03,East,90,0.0,4.0,34,0.00,,,0.04,WeatherDisplay:10.37,2013-02-12 02:22:00,
2013-02-11 18:27:00,21.0,-3.0,30.03,ESE,115,3.0,3.0,34,0.00,,,0.04,WeatherDisplay:10.37,2013-02-12 02:27:00,
2013-02-11 18:32:00,20.9,-3.2,30.03,East,99,0.0,4.0,34,0.00,,,0.04,WeatherDisplay:10.37,2013-02-12 02:32:00,
2013-02-11 18:37:00,20.8,-3.2,30.03,East,84,3.0,6.0,34,0.00,,,0.04,WeatherDisplay:10.37,2013-02-12 02:37:00,
2013-02-11 18:42:00,20.8,-3.2,30.03,ENE,73,0.0,3.0,34,0.00,,,0.04,WeatherDisplay:10.37,2013-02-12 02:42:00,
2013-02-11 18:47:00,20.7,-3.3,30.03,NE,42,2.0,6.0,34,0.00,,,0.04,WeatherDisplay:10.37,2013-02-12 02:47:00,
2013-02-11 18:52:00,20.7,-3.3,30.03,North,6,2.0,6.0,34,0.00,,,0.04,WeatherDisplay:10.37,2013-02-12 02:52:00,
2013-02-11 18:57:00,20.5,-3.5,30.03,North,8,0.0,0.0,34,0.00,,,0.04,WeatherDisplay:10.37,2013-02-12 02:57:00,
2013-02-11 19:02:00,20.5,-3.5,30.03,NE,55,3.0,6.0,34,0.00,,,0.04,WeatherDisplay:10.37,2013-02-12 03:02:00,
2013-02-11 19:07:00,20.8,-3.2,30.03,East,90,3.0,6.0,34,0.00,,,0.04,WeatherDisplay:10.37,2013-02-12 03:07:00,
2013-02-11 19:12:00,21.0,-3.0,30.03,East,90,3.0,6.0,34,0.00,,,0.04,WeatherDisplay:10.37,2013-02-12 03:12:00,
2013-02-11 19:17:00,20.8,-3.2,30.03,East,84,2.0,6.0,34,0.00,,,0.04,WeatherDisplay:10.37,2013-02-12 03:17:00,
2013-02-11 19:22:00,20.7,-3.3,30.03,ENE,77,0.0,3.0,34,0.00,,,0.04,WeatherDisplay:10.37,2013-02-12 03:22:00,
2013-02-11 19:27:00,20.3,-3.7,30.03,NE,47,0.0,3.0,34,0.00,,,0.04,WeatherDisplay:10.37,2013-02-12 03:27:00,
2013-02-11 19:32:00,20.1,-3.8,30.03,NNE,21,0.0,3.0,34,0.00,,,0.04,WeatherDisplay:10.37,2013-02-12 03:32:00,
2013-02-11 19:37:00,20.1,-3.8,30.03,NNE,26,0.0,4.0,34,0.00,,,0.04,WeatherDisplay:10.37,2013-02-12 03:37:00,
2013-02-11 19:42:00,20.3,-3.7,30.03,ENE,63,3.0,4.0,34,0.00,,,0.04,WeatherDisplay:10.37,2013-02-12 03:42:00,
2013-02-11 19:47:00,20.5,-3.5,30.03,ENE,64,0.0,4.0,34,0.00,,,0.04,WeatherDisplay:10.37,2013-02-12 03:47:00,
2013-02-11 19:52:00,20.5,-3.5,30.06,ENE,64,2.0,5.0,34,0.00,,,0.04,WeatherDisplay:10.37,2013-02-12 03:52:00,
2013-02-11 20:02:00,21.2,-2.9,30.06,ENE,58,0.0,7.0,34,0.00,,,0.04,WeatherDisplay:10.37,2013-02-12 04:02:00,
2013-02-11 20:07:00,21.2,-2.9,30.06,NE,48,2.0,6.0,34,0.00,,,0.04,WeatherDisplay:10.37,2013-02-12 04:07:00,
2013-02-11 20:12:00,21.2,-2.9,30.06,NNE,26,0.0,6.0,34,0.00,,,0.04,WeatherDisplay:10.37,2013-02-12 04:12:00,
2013-02-11 20:22:00,21.4,-3.3,30.06,NE,56,2.0,6.0,33,0.00,,,0.04,WeatherDisplay:10.37,2013-02-12 04:22:00,
2013-02-11 20:27:00,21.5,-3.2,30.06,ENE,63,0.0,4.0,33,0.00,,,0.04,WeatherDisplay:10.37,2013-02-12 04:27:00,
2013-02-11 20:32:00,21.4,-3.3,30.06,ENE,78,0.0,4.0,33,0.00,,,0.04,WeatherDisplay:10.37,2013-02-12 04:32:00,
2013-02-11 20:37:00,21.4,-3.3,30.06,ENE,68,0.0,4.0,33,0.00,,,0.04,WeatherDisplay:10.37,2013-02-12 04:37:00,
2013-02-11 20:47:00,21.6,-3.2,30.06,East,83,0.0,4.0,33,0.00,,,0.04,WeatherDisplay:10.37,2013-02-12 04:47:00,
2013-02-11 20:52:00,21.6,-3.2,30.06,ENE,78,2.0,6.0,33,0.00,,,0.04,WeatherDisplay:10.37,2013-02-12 04:52:00,
2013-02-11 20:57:00,21.9,-2.8,30.06,East,81,5.0,8.0,33,0.00,,,0.04,WeatherDisplay:10.37,2013-02-12 04:57:00,
2013-02-11 21:02:00,21.9,-2.8,30.06,East,101,0.0,6.0,33,0.00,,,0.04,WeatherDisplay:10.37,2013-02-12 05:02:00,
2013-02-11 21:07:00,21.9,-2.8,30.06,East,100,2.0,4.0,33,0.00,,,0.04,WeatherDisplay:10.37,2013-02-12 05:07:00,
2013-02-11 21:12:00,21.9,-2.8,30.06,East,86,0.0,5.0,33,0.00,,,0.04,WeatherDisplay:10.37,2013-02-12 05:12:00,
2013-02-11 21:17:00,21.7,-3.0,30.06,ENE,78,3.0,7.0,33,0.00,,,0.04,WeatherDisplay:10.37,2013-02-12 05:17:00,
2013-02-11 21:22:00,21.9,-2.8,30.06,East,80,3.0,5.0,33,0.00,,,0.04,WeatherDisplay:10.37,2013-02-12 05:22:00,
2013-02-11 21:27:00,21.9,-2.8,30.06,East,83,2.0,6.0,33,0.00,,,0.04,WeatherDisplay:10.37,2013-02-12 05:27:00,
2013-02-11 21:32:00,22.1,-2.7,30.06,East,79,2.0,6.0,33,0.00,,,0.04,WeatherDisplay:10.37,2013-02-12 05:32:00,
2013-02-11 21:37:00,22.1,-2.7,30.06,ENE,76,0.0,4.0,33,0.00,,,0.04,WeatherDisplay:10.37,2013-02-12 05:37:00,
2013-02-11 21:42:00,22.1,-2.7,30.06,East,85,3.0,6.0,33,0.00,,,0.04,WeatherDisplay:10.37,2013-02-12 05:42:00,
2013-02-11 21:47:00,22.1,-2.7,30.06,East,88,5.0,8.0,33,0.00,,,0.04,WeatherDisplay:10.37,2013-02-12 05:47:00,
2013-02-11 21:52:00,22.5,-2.4,30.06,East,85,2.0,8.0,33,0.00,,,0.04,WeatherDisplay:10.37,2013-02-12 05:52:00,
2013-02-11 22:02:00,22.6,-2.2,30.06,ENE,74,0.0,6.0,33,0.00,,,0.04,WeatherDisplay:10.37,2013-02-12 06:02:00,
2013-02-11 22:07:00,22.6,-2.2,30.09,ENE,71,2.0,6.0,33,0.00,,,0.04,WeatherDisplay:10.37,2013-02-12 06:07:00,
2013-02-11 22:12:00,22.5,-2.4,30.09,ENE,67,3.0,6.0,33,0.00,,,0.04,WeatherDisplay:10.37,2013-02-12 06:12:00,
2013-02-11 22:17:00,22.5,-2.4,30.09,ENE,71,3.0,6.0,33,0.00,,,0.04,WeatherDisplay:10.37,2013-02-12 06:17:00,
2013-02-11 22:22:00,22.5,-2.4,30.06,ENE,58,2.0,6.0,33,0.00,,,0.04,WeatherDisplay:10.37,2013-02-12 06:22:00,
2013-02-11 22:27:00,22.6,-2.2,30.06,ENE,66,5.0,8.0,33,0.00,,,0.04,WeatherDisplay:10.37,2013-02-12 06:27:00,
2013-02-11 22:32:00,22.8,-2.0,30.06,ENE,74,3.0,8.0,33,0.00,,,0.04,WeatherDisplay:10.37,2013-02-12 06:32:00,
2013-02-11 22:37:00,22.8,-2.0,30.09,East,79,2.0,7.0,33,0.00,,,0.04,WeatherDisplay:10.37,2013-02-12 06:37:00,
2013-02-11 22:42:00,22.8,-2.0,30.09,East,87,5.0,6.0,33,0.00,,,0.04,WeatherDisplay:10.37,2013-02-12 06:42:00,
2013-02-11 22:47:00,22.8,-2.0,30.09,ENE,70,3.0,6.0,33,0.00,,,0.04,WeatherDisplay:10.37,2013-02-12 06:47:00,
2013-02-11 22:52:00,22.8,-2.0,30.09,ENE,65,3.0,6.0,33,0.00,,,0.04,WeatherDisplay:10.37,2013-02-12 06:52:00,
2013-02-11 22:57:00,22.8,-2.0,30.09,ENE,62,2.0,6.0,33,0.00,,,0.04,WeatherDisplay:10.37,2013-02-12 06:57:00,
2013-02-11 23:02:00,22.8,-2.0,30.09,ENE,60,3.0,6.0,33,0.00,,,0.04,WeatherDisplay:10.37,2013-02-12 07:02:00,
2013-02-11 23:07:00,22.8,-2.0,30.09,ENE,62,3.0,5.0,33,0.00,,,0.04,WeatherDisplay:10.37,2013-02-12 07:07:00,
2013-02-11 23:12:00,23.0,-1.9,30.09,NE,51,3.0,4.0,33,0.00,,,0.04,WeatherDisplay:10.37,2013-02-12 07:12:00,
2013-02-11 23:17:00,23.0,-1.9,30.09,NE,41,2.0,6.0,33,0.00,,,0.04,WeatherDisplay:10.37,2013-02-12 07:17:00,
2013-02-11 23:22:00,23.2,-1.7,30.09,NE,47,5.0,8.0,33,0.00,,,0.04,WeatherDisplay:10.37,2013-02-12 07:22:00,
2013-02-11 23:27:00,23.2,-1.7,30.09,NE,56,3.0,8.0,33,0.00,,,0.04,WeatherDisplay:10.37,2013-02-12 07:27:00,
2013-02-11 23:32:00,23.2,-1.7,30.09,ENE,59,3.0,6.0,33,0.00,,,0.04,WeatherDisplay:10.37,2013-02-12 07:32:00,
2013-02-11 23:37:00,23.2,-1.7,30.09,NE,45,3.0,6.0,33,0.00,,,0.04,WeatherDisplay:10.37,2013-02-12 07:37:00,
2013-02-11 23:42:00,22.8,-2.0,30.09,NE,46,3.0,8.0,33,0.00,,,0.04,WeatherDisplay:10.37,2013-02-12 07:42:00,
2013-02-11 23:47:00,23.0,-1.9,30.09,NE,55,0.0,5.0,33,0.00,,,0.04,WeatherDisplay:10.37,2013-02-12 07:47:00,
2013-02-11 23:52:00,22.8,-2.0,30.09,NE,53,3.0,7.0,33,0.00,,,0.04,WeatherDisplay:10.37,2013-02-12 07:52:00,
2013-02-11 23:57:00,23.2,-1.7,30.09,ENE,57,2.0,8.0,33,0.00,,,0.04,WeatherDisplay:10.37,2013-02-12 07:57:00,